ADDS METAR Data INFO
IDs: Format: Raw Decoded Include TAF

Data at: 1951 UTC 14 Aug 2018

KBRL 141853Z AUTO 18006KT 10SM CLR 29/21 A2996 RMK AO2 SLP138 T02940206
KBRL 141753Z AUTO 15005KT 10SM CLR 29/21 A2997 RMK AO2 SLP142 T02890206 10289 20206 58003
KBRL 141653Z AUTO 19006KT 10SM CLR 28/21 A2998 RMK AO2 SLP146 T02780211
KBRL 141553Z AUTO 17006KT 10SM CLR 27/20 A2999 RMK AO2 SLP148 T02670200
KBRL 141453Z AUTO VRB03KT 10SM CLR 26/20 A2998 RMK AO2 SLP146 T02560200 58001
KBRL 141353Z AUTO 19004KT 10SM CLR 24/19 A2998 RMK AO2 SLP148 T02390194
KBRL 141253Z AUTO 18005KT 9SM CLR 23/19 A2998 RMK AO2 SLP147 T02280189
KBRL 141153Z AUTO 16005KT 8SM CLR 20/18 A2998 RMK AO2 SLP148 T02000178 10222 20183 55001
KBRL 141053Z AUTO 00000KT 8SM CLR 19/18 A2998 RMK AO2 SLP146 T01890178
KBRL 140953Z AUTO 16003KT 9SM CLR 21/18 A2998 RMK AO2 SLP145 T02060183
KBRL 140853Z AUTO 17004KT 10SM CLR 21/18 A2999 RMK AO2 SLP148 T02110183 57004
KBRL 140753Z AUTO 17006KT 10SM CLR 21/18 A2999 RMK AO2 SLP150 T02110183
KBRL 140653Z AUTO 00000KT 10SM CLR 21/18 A3000 RMK AO2 SLP152 T02060178
KBRL 140553Z AUTO 14003KT 10SM CLR 21/18 A3000 RMK AO2 SLP153 T02110178 10300 20211 403170167 58004
KBRL 140453Z AUTO 14004KT 10SM CLR 23/18 A3001 RMK AO2 SLP156 T02280183
KBRL 140353Z AUTO 15003KT 10SM CLR 23/18 A3001 RMK AO2 SLP156 T02330183
KBRL 140253Z AUTO 16003KT 10SM CLR 24/19 A3001 RMK AO2 SLP157 T02390189 53003
KBRL 140153Z AUTO 12004KT 10SM CLR 24/20 A3001 RMK AO2 SLP157 T02440200
KBRL 140053Z AUTO 00000KT 10SM CLR 28/19 A3000 RMK AO2 SLP153 T02830194
KBRL 132353Z AUTO 00000KT 10SM CLR 29/18 A3000 RMK AO2 SLP155 T02890183 10317 20289 56008
KBRL 132253Z AUTO 15003KT 10SM CLR 31/17 A3001 RMK AO2 SLP157 T03110172
KBRL 132153Z AUTO 17005KT 10SM FEW055 31/18 A3001 RMK AO2 SLP157 T03060178
KBRL 132053Z AUTO 19005KT 10SM CLR 32/18 A3003 RMK AO2 SLP162 T03170183 58017
KBRL 131953Z AUTO VRB05KT 10SM CLR 31/18 A3004 RMK AO2 SLP168 T03060183
KBRL 131853Z AUTO 15007KT 10SM CLR 31/18 A3007 RMK AO2 SLP175 T03060183
KBRL 131753Z AUTO VRB06KT 10SM CLR 30/19 A3008 RMK AO2 SLP179 T03000189 10300 20172 58010
KBRL 131653Z AUTO 08005KT 10SM CLR 29/18 A3010 RMK AO2 SLP188 T02890183
KBRL 131553Z AUTO 22004KT 10SM CLR 28/20 A3011 RMK AO2 SLP190 T02780200
KBRL 131453Z AUTO 21004KT 10SM CLR 26/21 A3011 RMK AO2 SLP190 T02610206 58001
KBRL 131353Z AUTO 00000KT 8SM CLR 24/21 A3012 RMK AO2 SLP194 T02440206
KBRL 131253Z AUTO 00000KT 5SM BR CLR 21/20 A3012 RMK AO2 SLP194 T02110200
KBRL 131230Z AUTO 00000KT 3SM BR CLR 20/19 A3011 RMK AO2 T02000194
KBRL 131222Z AUTO 00000KT 2SM BR FEW001 19/19 A3011 RMK AO2 T01940189
KBRL 131218Z AUTO 00000KT 1SM BR VV001 19/19 A3011 RMK AO2 T01890189
KBRL 131153Z AUTO 00000KT 1/4SM FG VV001 17/17 A3011 RMK AO2 SLP192 T01720172 10211 20167 53003
KBRL 131150Z AUTO 00000KT 1/4SM FG VV001 17/17 A3011 RMK AO2
KBRL 131142Z AUTO 00000KT 3/4SM BR VV002 18/18 A3011 RMK AO2 T01780178
KBRL 131137Z AUTO 00000KT 8SM SCT002 18/18 A3011 RMK AO2 T01780178
KBRL 131129Z AUTO 00000KT 1 1/4SM BR FEW002 18/18 A3010 RMK AO2 T01780178
KBRL 131109Z AUTO 00000KT 1/4SM FG CLR 17/17 A3010 RMK AO2 T01720172
KBRL 131056Z AUTO 00000KT 1 3/4SM BR CLR 17/16 A3010 RMK AO2 T01720161
KBRL 131053Z AUTO 00000KT 3SM BR CLR 17/17 A3010 RMK AO2 SLP188 T01720167
KBRL 130953Z AUTO 00000KT 9SM CLR 19/18 A3010 RMK AO2 SLP187 T01890178
KBRL 130853Z AUTO 00000KT 7SM CLR 18/18 A3010 RMK AO2 SLP189 T01780178 55005
KBRL 130753Z AUTO 00000KT 10SM CLR 20/18 A3010 RMK AO2 SLP188 T02000183